createdAt,value
2018-11-14T00:02:19.847Z,99772.70
2018-11-14T00:07:22.255Z,99776.44
2018-11-14T00:12:40.009Z,99779.71
2018-11-14T00:17:43.258Z,99780.98
2018-11-14T00:22:46.438Z,99787.20
2018-11-14T00:27:48.761Z,99784.77
2018-11-14T00:32:51.062Z,99792.19
2018-11-14T00:37:53.402Z,99796.64
2018-11-14T00:42:55.654Z,99804.64
2018-11-14T00:47:57.910Z,99809.47
2018-11-14T00:53:00.161Z,99808.52
2018-11-14T00:58:02.427Z,99801.20
2018-11-14T01:03:04.890Z,99811.25
2018-11-14T01:08:07.222Z,99809.68
2018-11-14T01:13:09.543Z,99822.57
2018-11-14T01:18:11.769Z,99824.31
2018-11-14T01:23:14.028Z,99819.19
2018-11-14T01:28:16.368Z,99816.81
2018-11-14T01:33:18.641Z,99811.64
2018-11-14T01:38:20.888Z,99811.39
2018-11-14T01:43:23.125Z,99821.00
2018-11-14T01:48:25.409Z,99815.39
2018-11-14T01:53:27.658Z,99806.97
2018-11-14T01:58:29.981Z,99810.76
2018-11-14T02:03:32.374Z,99816.07
2018-11-14T02:08:34.654Z,99819.20
2018-11-14T02:13:36.935Z,99818.27
2018-11-14T02:18:39.195Z,99820.47
2018-11-14T02:23:41.430Z,99823.28
2018-11-14T02:28:43.670Z,99820.51
2018-11-14T02:33:45.966Z,99831.91
2018-11-14T02:38:48.211Z,99823.60
2018-11-14T02:43:50.542Z,99826.59
2018-11-14T02:48:52.808Z,99823.67
2018-11-14T02:53:55.237Z,99826.45
2018-11-14T02:58:57.519Z,99817.70
2018-11-14T03:03:59.950Z,99819.64
2018-11-14T03:09:02.277Z,99820.20
2018-11-14T03:14:05.003Z,99817.87
2018-11-14T03:19:07.272Z,99825.95
2018-11-14T03:24:09.572Z,99820.69
2018-11-14T03:29:11.815Z,99825.25
2018-11-14T03:34:14.156Z,99831.97
2018-11-14T03:39:16.416Z,99831.06
2018-11-14T03:44:18.675Z,99827.83
2018-11-14T03:49:20.932Z,99833.22
2018-11-14T03:54:23.200Z,99837.42
2018-11-14T03:59:25.452Z,99833.70
2018-11-14T04:04:27.777Z,99833.16
2018-11-14T04:09:30.213Z,99824.92
2018-11-14T04:14:32.426Z,99821.67
2018-11-14T04:19:35.198Z,99820.10
2018-11-14T04:24:37.688Z,99818.14
2018-11-14T04:29:39.973Z,99821.31
2018-11-14T04:34:42.316Z,99818.55
2018-11-14T04:39:44.720Z,99816.43
2018-11-14T04:44:47.387Z,99821.06
2018-11-14T04:49:49.743Z,99816.69
2018-11-14T04:54:52.080Z,99818.84
2018-11-14T04:59:54.375Z,99815.05
2018-11-14T05:04:56.755Z,99810.53
2018-11-14T05:09:59.171Z,99807.83
2018-11-14T05:15:01.455Z,99813.98
2018-11-14T05:20:03.893Z,99822.31
2018-11-14T05:25:06.460Z,99829.66
2018-11-14T05:30:10.525Z,99825.80
2018-11-14T05:35:13.326Z,99825.37
2018-11-14T05:40:22.674Z,99843.66
2018-11-14T05:45:26.115Z,99837.02
2018-11-14T05:50:28.430Z,99847.61
2018-11-14T05:55:30.730Z,99825.38
2018-11-14T06:00:33.131Z,99822.06
2018-11-14T06:05:35.488Z,99822.82
2018-11-14T06:10:37.820Z,99824.23
2018-11-14T06:15:40.120Z,99832.34
2018-11-14T06:20:43.493Z,99827.49
2018-11-14T06:25:45.792Z,99830.16
2018-11-14T06:30:48.093Z,99832.45
2018-11-14T06:35:50.448Z,99831.75
2018-11-14T06:40:52.839Z,99829.74
2018-11-14T06:45:55.164Z,99824.97
2018-11-14T06:50:57.483Z,99834.98
2018-11-14T06:55:59.779Z,99835.17
2018-11-14T07:01:02.093Z,99855.14
2018-11-14T07:06:04.820Z,99849.75
2018-11-14T07:11:07.092Z,99859.62
2018-11-14T07:16:09.308Z,99859.70
2018-11-14T07:21:11.607Z,99867.85
2018-11-14T07:26:13.964Z,99875.38
2018-11-14T07:31:16.332Z,99884.31
2018-11-14T07:36:18.673Z,99881.48
2018-11-14T07:41:23.284Z,99884.91
2018-11-14T07:46:26.801Z,99880.72
2018-11-14T07:51:29.304Z,99878.59
2018-11-14T07:56:31.609Z,99873.50
2018-11-14T08:01:33.898Z,99864.39
2018-11-14T08:06:36.296Z,99858.02
2018-11-14T08:11:38.594Z,99860.28
2018-11-14T08:16:40.904Z,99859.19
2018-11-14T08:21:43.206Z,99859.83
2018-11-14T08:26:45.504Z,99857.70
2018-11-14T08:31:47.824Z,99868.64
2018-11-14T08:36:50.186Z,99877.94
2018-11-14T08:41:52.528Z,99881.44
2018-11-14T08:46:54.820Z,99886.23
2018-11-14T08:51:57.391Z,99878.14
2018-11-14T08:56:59.722Z,99884.97
2018-11-14T09:02:02.152Z,99877.95
2018-11-14T09:07:05.238Z,99882.08
2018-11-14T09:12:08.220Z,99880.69
2018-11-14T09:17:10.520Z,99870.43
2018-11-14T09:22:12.800Z,99879.97
2018-11-14T09:27:15.088Z,99881.76
2018-11-14T09:32:17.606Z,99884.77
2018-11-14T09:37:19.924Z,99889.13
2018-11-14T09:42:22.211Z,99877.23
2018-11-14T09:47:24.583Z,99876.80
2018-11-14T09:52:26.964Z,99875.62
2018-11-14T09:57:29.243Z,99880.30
2018-11-14T10:02:31.608Z,99875.27
2018-11-14T10:07:34.124Z,99871.66
2018-11-14T10:12:37.707Z,99866.25
2018-11-14T10:17:40.511Z,99857.73
2018-11-14T10:22:43.319Z,99860.41
2018-11-14T10:27:46.322Z,99852.81
2018-11-14T10:32:49.224Z,99849.34
2018-11-14T10:37:51.557Z,99845.88
2018-11-14T10:42:53.892Z,99849.53
2018-11-14T10:47:56.180Z,99836.80
2018-11-14T10:52:59.437Z,99830.35
2018-11-14T10:58:01.724Z,99830.32
2018-11-14T11:03:09.699Z,99834.92
2018-11-14T11:08:18.977Z,99827.50
2018-11-14T11:13:27.059Z,99836.41
2018-11-14T11:18:33.790Z,99837.67
2018-11-14T11:23:36.174Z,99828.52
2018-11-14T11:28:38.560Z,99819.86
2018-11-14T11:33:40.903Z,99818.20
2018-11-14T11:38:43.242Z,99812.44
2018-11-14T11:43:45.551Z,99814.93
2018-11-14T11:48:47.908Z,99813.58
2018-11-14T11:53:50.210Z,99795.84
2018-11-14T11:58:52.527Z,99797.84
2018-11-14T12:03:54.861Z,99785.40
2018-11-14T12:08:57.233Z,99789.53
2018-11-14T12:13:59.538Z,99793.73
2018-11-14T12:19:01.910Z,99790.25
2018-11-14T12:24:04.362Z,99789.77
2018-11-14T12:29:06.666Z,99783.18
2018-11-14T12:34:08.979Z,99783.25
2018-11-14T12:39:11.280Z,99774.66
2018-11-14T12:44:13.573Z,99770.42
2018-11-14T12:49:15.932Z,99763.83
2018-11-14T12:54:18.219Z,99755.77
2018-11-14T12:59:20.571Z,99756.33
2018-11-14T13:04:22.836Z,99766.09
2018-11-14T13:09:25.232Z,99759.22
2018-11-14T13:14:27.541Z,99752.92
2018-11-14T13:19:29.883Z,99754.01
2018-11-14T13:24:32.193Z,99730.90
2018-11-14T13:29:34.565Z,99729.70
2018-11-14T13:34:36.929Z,99717.59
2018-11-14T13:39:39.515Z,99702.92
2018-11-14T13:44:41.802Z,99697.57
2018-11-14T13:49:44.357Z,99693.38
2018-11-14T13:54:46.536Z,99699.48
2018-11-14T13:59:49.016Z,99692.58
2018-11-14T14:04:51.330Z,99698.06
2018-11-14T14:09:53.693Z,99694.74
2018-11-14T14:14:55.992Z,99703.30
2018-11-14T14:19:58.281Z,99706.86
2018-11-14T14:25:00.558Z,99709.88
2018-11-14T14:30:03.011Z,99711.20
2018-11-14T14:35:06.195Z,99709.31
2018-11-14T14:40:13.462Z,99706.66
2018-11-14T14:45:18.250Z,99700.00
2018-11-14T14:50:20.880Z,99718.11
2018-11-14T14:55:24.263Z,99723.83
2018-11-14T15:00:27.562Z,99722.89
2018-11-14T15:05:29.859Z,99731.25
2018-11-14T15:10:32.245Z,99736.25
2018-11-14T15:15:34.635Z,99741.80
2018-11-14T15:20:36.971Z,99750.05
2018-11-14T15:25:39.321Z,99743.28
2018-11-14T15:30:41.660Z,99730.89
2018-11-14T15:35:44.055Z,99731.94
2018-11-14T15:40:46.711Z,99732.41
2018-11-14T15:45:48.995Z,99744.59
2018-11-14T15:50:51.313Z,99732.98
2018-11-14T15:55:53.600Z,99742.09
2018-11-14T16:00:55.911Z,99745.88
2018-11-14T16:05:59.279Z,99748.03
2018-11-14T16:11:01.762Z,99744.94
2018-11-14T16:16:04.181Z,99749.44
2018-11-14T16:21:07.401Z,99742.83
2018-11-14T16:26:10.714Z,99738.34
2018-11-14T16:31:13.427Z,99742.47
2018-11-14T16:36:15.724Z,99735.55
2018-11-14T16:41:18.278Z,99738.17
2018-11-14T16:46:20.624Z,99737.64
2018-11-14T16:51:22.964Z,99734.14
2018-11-14T16:56:25.396Z,99734.77
2018-11-14T17:01:27.809Z,99736.03
2018-11-14T17:06:30.546Z,99737.64
2018-11-14T17:11:33.428Z,99747.64
2018-11-14T17:16:36.653Z,99755.34
2018-11-14T17:21:39.980Z,99762.41
2018-11-14T17:26:42.628Z,99755.44
2018-11-14T17:31:45.093Z,99752.28
2018-11-14T17:36:47.536Z,99741.98
2018-11-14T17:41:49.970Z,99744.27
2018-11-14T17:46:52.304Z,99744.25
2018-11-14T17:51:54.709Z,99751.42
2018-11-14T17:56:57.290Z,99747.70
2018-11-14T18:01:59.682Z,99745.39
2018-11-14T18:07:02.266Z,99752.84
2018-11-14T18:12:05.029Z,99740.45
2018-11-14T18:17:07.458Z,99739.73
2018-11-14T18:22:10.031Z,99730.81
2018-11-14T18:27:12.417Z,99741.75
2018-11-14T18:32:14.847Z,99743.98
2018-11-14T18:37:17.148Z,99744.91
2018-11-14T18:42:19.589Z,99743.19
2018-11-14T18:47:21.972Z,99748.32
2018-11-14T18:52:25.727Z,99756.17
2018-11-14T18:57:28.517Z,99758.20
2018-11-14T19:02:31.219Z,99763.57
2018-11-14T19:07:37.064Z,99753.31
2018-11-14T19:12:39.948Z,99747.65
2018-11-14T19:17:42.249Z,99741.00
2018-11-14T19:22:44.871Z,99745.20
2018-11-14T19:27:48.135Z,99751.57
2018-11-14T19:32:51.301Z,99762.36
2018-11-14T19:37:54.421Z,99757.83
2018-11-14T19:42:57.992Z,99762.20
2018-11-14T19:48:00.272Z,99760.20
2018-11-14T19:53:02.912Z,99750.67
2018-11-14T19:58:05.855Z,99757.19
2018-11-14T20:03:08.719Z,99741.99
2018-11-14T20:08:11.027Z,99739.25
2018-11-14T20:13:13.405Z,99737.88
2018-11-14T20:18:15.680Z,99743.02
2018-11-14T20:23:18.284Z,99738.66
2018-11-14T20:28:20.673Z,99731.47
2018-11-14T20:33:22.984Z,99724.22
2018-11-14T20:38:25.275Z,99720.64
2018-11-14T20:43:27.688Z,99724.58
2018-11-14T20:48:30.028Z,99722.96
2018-11-14T20:53:32.394Z,99726.58
2018-11-14T20:58:34.716Z,99728.98
2018-11-14T21:03:36.986Z,99721.41
2018-11-14T21:08:39.397Z,99717.74
2018-11-14T21:13:41.884Z,99719.20
2018-11-14T21:18:44.228Z,99719.14
2018-11-14T21:23:46.545Z,99725.38
2018-11-14T21:28:48.926Z,99720.42
2018-11-14T21:33:51.269Z,99722.98
2018-11-14T21:38:53.623Z,99731.06
2018-11-14T21:43:56.015Z,99728.09
2018-11-14T21:48:58.290Z,99741.58
2018-11-14T21:54:00.574Z,99727.77
2018-11-14T21:59:02.857Z,99736.05
2018-11-14T22:04:05.476Z,99733.36
2018-11-14T22:09:09.343Z,99728.84
2018-11-14T22:14:11.732Z,99723.27
2018-11-14T22:19:14.094Z,99719.41
2018-11-14T22:24:16.439Z,99715.52
2018-11-14T22:29:18.727Z,99723.23
2018-11-14T22:34:21.040Z,99711.91
2018-11-14T22:39:23.355Z,99702.80
2018-11-14T22:44:25.784Z,99703.84
2018-11-14T22:49:28.075Z,99695.91
2018-11-14T22:54:30.749Z,99688.59
2018-11-14T22:59:33.056Z,99687.53
2018-11-14T23:04:35.352Z,99687.38
2018-11-14T23:09:37.768Z,99686.38
2018-11-14T23:14:40.112Z,99693.20
2018-11-14T23:19:42.400Z,99678.33
2018-11-14T23:24:44.706Z,99673.41
2018-11-14T23:29:46.995Z,99674.09
2018-11-14T23:34:55.047Z,99673.21
2018-11-14T23:39:57.414Z,99673.93
2018-11-14T23:44:59.740Z,99674.35
2018-11-14T23:50:02.045Z,99672.59
2018-11-14T23:55:04.442Z,99673.42
